Elorz, Spain
Current Conditions -  °F | °C
As of 12:00 AM on Sunday 26 Oct 2014 (Local Time) from LEPP Reporting Station
Clear Clear  
Wind Chill: 59°   Ceiling: Unl
Heat Index: 59°   Visibility: 6mi
Dew Point: 52°   Wind: 3mph
Humidity: 77%   Direction: 40°NE
Pressure: 30.24"   Gusts: NA
Location:  42.73°N, 1.56°W
Report Text: LEPP 252200Z 04003KT CAVOK 15/11 Q1024
Loading
Personal Weather Stations






























Interactive Weather Map
Tropical Storm Tracking
New forecast layout! Learn more

10-Day Weather Forecast

Advertisements
Track Severe Weather on mobile